sensor_id;sensor_type;location;lat;lon;timestamp;pressure;altitude;pressure_sealevel;temperature;humidity
54872;BME280;43914;57.680;11.982;2022-08-21T00:01:06;100552.41;;;15.01;80.17
54872;BME280;43914;57.680;11.982;2022-08-21T00:03:35;100553.66;;;14.98;80.39
54872;BME280;43914;57.680;11.982;2022-08-21T00:06:01;100548.69;;;14.95;80.53
54872;BME280;43914;57.680;11.982;2022-08-21T00:08:27;100545.67;;;14.94;80.55
54872;BME280;43914;57.680;11.982;2022-08-21T00:10:52;100545.06;;;14.92;80.83
54872;BME280;43914;57.680;11.982;2022-08-21T00:13:19;100538.81;;;14.92;80.88
54872;BME280;43914;57.680;11.982;2022-08-21T00:15:46;100539.35;;;14.91;80.86
54872;BME280;43914;57.680;11.982;2022-08-21T00:18:12;100539.35;;;14.91;81.14
54872;BME280;43914;57.680;11.982;2022-08-21T00:20:40;100540.70;;;14.91;81.35
54872;BME280;43914;57.680;11.982;2022-08-21T00:23:08;100533.27;;;14.96;81.58
54872;BME280;43914;57.680;11.982;2022-08-21T00:25:35;100535.13;;;15.02;81.51
54872;BME280;43914;57.680;11.982;2022-08-21T00:28:02;100539.41;;;15.10;81.27
54872;BME280;43914;57.680;11.982;2022-08-21T00:30:29;100532.91;;;15.18;81.11
54872;BME280;43914;57.680;11.982;2022-08-21T00:32:56;100535.87;;;15.25;80.84
54872;BME280;43914;57.680;11.982;2022-08-21T00:35:31;100536.88;;;15.31;80.63
54872;BME280;43914;57.680;11.982;2022-08-21T00:38:04;100531.09;;;15.37;80.50
54872;BME280;43914;57.680;11.982;2022-08-21T00:40:41;100528.63;;;15.44;80.32
54872;BME280;43914;57.680;11.982;2022-08-21T00:43:11;100520.05;;;15.48;80.06
54872;BME280;43914;57.680;11.982;2022-08-21T00:45:39;100524.52;;;15.51;79.90
54872;BME280;43914;57.680;11.982;2022-08-21T00:48:05;100527.28;;;15.54;80.01
54872;BME280;43914;57.680;11.982;2022-08-21T00:50:33;100518.65;;;15.54;79.97
54872;BME280;43914;57.680;11.982;2022-08-21T00:53:02;100524.97;;;15.57;80.05
54872;BME280;43914;57.680;11.982;2022-08-21T00:55:29;100521.52;;;15.60;80.11
54872;BME280;43914;57.680;11.982;2022-08-21T00:57:57;100521.06;;;15.63;80.06
54872;BME280;43914;57.680;11.982;2022-08-21T01:00:29;100521.36;;;15.64;80.01
54872;BME280;43914;57.680;11.982;2022-08-21T01:02:58;100518.75;;;15.66;80.05
54872;BME280;43914;57.680;11.982;2022-08-21T01:05:25;100517.45;;;15.69;79.93
54872;BME280;43914;57.680;11.982;2022-08-21T01:07:53;100517.00;;;15.63;79.67
54872;BME280;43914;57.680;11.982;2022-08-21T01:10:21;100521.21;;;15.58;79.80
54872;BME280;43914;57.680;11.982;2022-08-21T01:12:48;100530.23;;;15.52;79.73
54872;BME280;43914;57.680;11.982;2022-08-21T01:15:18;100530.94;;;15.41;79.80
54872;BME280;43914;57.680;11.982;2022-08-21T01:17:46;100533.48;;;15.36;80.23
54872;BME280;43914;57.680;11.982;2022-08-21T01:20:13;100534.17;;;15.31;80.38
54872;BME280;43914;57.680;11.982;2022-08-21T01:22:39;100520.38;;;15.23;80.28
54872;BME280;43914;57.680;11.982;2022-08-21T01:25:06;100528.10;;;15.20;80.57
54872;BME280;43914;57.680;11.982;2022-08-21T01:27:33;100519.91;;;15.17;80.99
54872;BME280;43914;57.680;11.982;2022-08-21T01:30:08;100526.79;;;15.13;80.49
54872;BME280;43914;57.680;11.982;2022-08-21T01:32:31;100530.55;;;15.12;80.97
54872;BME280;43914;57.680;11.982;2022-08-21T01:34:57;100526.89;;;15.15;81.75
54872;BME280;43914;57.680;11.982;2022-08-21T01:37:22;100524.28;;;15.18;81.91
54872;BME280;43914;57.680;11.982;2022-08-21T01:39:48;100518.86;;;15.18;81.29
54872;BME280;43914;57.680;11.982;2022-08-21T01:42:15;100526.48;;;15.12;81.17
54872;BME280;43914;57.680;11.982;2022-08-21T01:44:41;100530.92;;;15.06;81.22
54872;BME280;43914;57.680;11.982;2022-08-21T01:47:10;100530.45;;;15.00;81.31
54872;BME280;43914;57.680;11.982;2022-08-21T01:49:37;100526.43;;;14.93;81.51
54872;BME280;43914;57.680;11.982;2022-08-21T01:52:05;100523.42;;;14.92;81.96
54872;BME280;43914;57.680;11.982;2022-08-21T01:54:32;100523.93;;;14.92;82.01
54872;BME280;43914;57.680;11.982;2022-08-21T01:56:58;100524.98;;;14.91;82.23
54872;BME280;43914;57.680;11.982;2022-08-21T01:59:25;100522.06;;;14.92;82.34
54872;BME280;43914;57.680;11.982;2022-08-21T02:01:52;100521.22;;;14.92;82.31
54872;BME280;43914;57.680;11.982;2022-08-21T02:04:21;100521.77;;;14.91;82.32
54872;BME280;43914;57.680;11.982;2022-08-21T02:06:49;100525.52;;;14.90;82.37
54872;BME280;43914;57.680;11.982;2022-08-21T02:09:15;100525.52;;;14.90;82.64
54872;BME280;43914;57.680;11.982;2022-08-21T02:11:42;100523.32;;;14.90;82.69
54872;BME280;43914;57.680;11.982;2022-08-21T02:14:14;100512.03;;;14.83;82.30
54872;BME280;43914;57.680;11.982;2022-08-21T02:16:44;100510.70;;;14.77;82.26
54872;BME280;43914;57.680;11.982;2022-08-21T02:19:12;100506.48;;;14.71;82.67
54872;BME280;43914;57.680;11.982;2022-08-21T02:21:39;100515.20;;;14.74;83.41
54872;BME280;43914;57.680;11.982;2022-08-21T02:24:06;100503.13;;;14.69;83.71
54872;BME280;43914;57.680;11.982;2022-08-21T02:26:33;100505.33;;;14.70;83.83
54872;BME280;43914;57.680;11.982;2022-08-21T02:28:59;100502.12;;;14.70;84.61
54872;BME280;43914;57.680;11.982;2022-08-21T02:31:26;100496.27;;;14.74;85.01
54872;BME280;43914;57.680;11.982;2022-08-21T02:33:52;100494.17;;;14.76;85.05
54872;BME280;43914;57.680;11.982;2022-08-21T02:36:18;100493.22;;;14.79;85.32
54872;BME280;43914;57.680;11.982;2022-08-21T02:38:44;100492.98;;;14.81;85.89
54872;BME280;43914;57.680;11.982;2022-08-21T02:41:18;100493.70;;;14.85;86.15
54872;BME280;43914;57.680;11.982;2022-08-21T02:43:42;100491.39;;;14.89;86.21
54872;BME280;43914;57.680;11.982;2022-08-21T02:46:10;100490.95;;;14.92;86.50
54872;BME280;43914;57.680;11.982;2022-08-21T02:48:39;100492.16;;;14.96;86.39
54872;BME280;43914;57.680;11.982;2022-08-21T02:51:11;100491.11;;;14.97;86.23
54872;BME280;43914;57.680;11.982;2022-08-21T02:53:40;100489.86;;;15.00;86.12
54872;BME280;43914;57.680;11.982;2022-08-21T02:56:10;100481.44;;;14.99;86.01
54872;BME280;43914;57.680;11.982;2022-08-21T02:58:40;100486.01;;;14.98;85.45
54872;BME280;43914;57.680;11.982;2022-08-21T03:01:09;100485.09;;;14.95;85.13
54872;BME280;43914;57.680;11.982;2022-08-21T03:03:38;100491.59;;;14.88;84.96
54872;BME280;43914;57.680;11.982;2022-08-21T03:06:08;100493.29;;;14.82;85.13
54872;BME280;43914;57.680;11.982;2022-08-21T03:08:36;100486.80;;;14.74;85.20
54872;BME280;43914;57.680;11.982;2022-08-21T03:11:03;100483.39;;;14.69;85.45
54872;BME280;43914;57.680;11.982;2022-08-21T03:13:29;100482.98;;;14.65;85.50
54872;BME280;43914;57.680;11.982;2022-08-21T03:15:55;100478.82;;;14.63;85.68
54872;BME280;43914;57.680;11.982;2022-08-21T03:18:21;100475.74;;;14.59;85.77
54872;BME280;43914;57.680;11.982;2022-08-21T03:20:47;100474.59;;;14.57;85.58
54872;BME280;43914;57.680;11.982;2022-08-21T03:23:14;100472.02;;;14.53;85.37
54872;BME280;43914;57.680;11.982;2022-08-21T03:25:41;100475.67;;;14.50;85.46
54872;BME280;43914;57.680;11.982;2022-08-21T03:28:10;100471.45;;;14.45;85.53
54872;BME280;43914;57.680;11.982;2022-08-21T03:30:42;100470.02;;;14.42;85.68
54872;BME280;43914;57.680;11.982;2022-08-21T03:33:10;100465.05;;;14.39;85.62
54872;BME280;43914;57.680;11.982;2022-08-21T03:35:36;100468.19;;;14.36;85.79
54872;BME280;43914;57.680;11.982;2022-08-21T03:38:02;100467.55;;;14.34;85.82
54872;BME280;43914;57.680;11.982;2022-08-21T03:40:28;100466.63;;;14.31;85.96
54872;BME280;43914;57.680;11.982;2022-08-21T03:42:54;100460.31;;;14.27;86.11
54872;BME280;43914;57.680;11.982;2022-08-21T03:45:21;100460.97;;;14.23;86.29
54872;BME280;43914;57.680;11.982;2022-08-21T03:47:56;100462.02;;;14.22;86.61
54872;BME280;43914;57.680;11.982;2022-08-21T03:50:29;100464.31;;;14.18;86.77
54872;BME280;43914;57.680;11.982;2022-08-21T03:52:58;100465.25;;;14.14;86.68
54872;BME280;43914;57.680;11.982;2022-08-21T03:55:25;100463.11;;;14.07;86.70
54872;BME280;43914;57.680;11.982;2022-08-21T03:57:52;100467.29;;;14.03;86.77
54872;BME280;43914;57.680;11.982;2022-08-21T04:00:19;100469.81;;;13.98;87.06
54872;BME280;43914;57.680;11.982;2022-08-21T04:02:46;100465.27;;;13.92;87.18
54872;BME280;43914;57.680;11.982;2022-08-21T04:05:14;100470.45;;;13.87;87.23
54872;BME280;43914;57.680;11.982;2022-08-21T04:07:42;100466.75;;;13.81;87.51
54872;BME280;43914;57.680;11.982;2022-08-21T04:10:08;100467.99;;;13.78;87.88
54872;BME280;43914;57.680;11.982;2022-08-21T04:12:34;100475.17;;;13.75;87.86
54872;BME280;43914;57.680;11.982;2022-08-21T04:15:00;100466.96;;;13.73;88.11
54872;BME280;43914;57.680;11.982;2022-08-21T04:17:27;100470.09;;;13.69;88.15
54872;BME280;43914;57.680;11.982;2022-08-21T04:19:53;100468.13;;;13.67;88.28
54872;BME280;43914;57.680;11.982;2022-08-21T04:22:20;100469.08;;;13.64;88.67
54872;BME280;43914;57.680;11.982;2022-08-21T04:24:46;100472.59;;;13.64;89.15
54872;BME280;43914;57.680;11.982;2022-08-21T04:27:11;100471.36;;;13.67;89.02
54872;BME280;43914;57.680;11.982;2022-08-21T04:29:37;100479.16;;;13.66;88.92
54872;BME280;43914;57.680;11.982;2022-08-21T04:32:03;100488.80;;;13.64;89.03
54872;BME280;43914;57.680;11.982;2022-08-21T04:34:29;100482.59;;;13.64;89.08
54872;BME280;43914;57.680;11.982;2022-08-21T04:36:55;100475.53;;;13.63;89.11
54872;BME280;43914;57.680;11.982;2022-08-21T04:39:20;100480.63;;;13.62;89.19
54872;BME280;43914;57.680;11.982;2022-08-21T04:41:46;100489.34;;;13.64;89.15
54872;BME280;43914;57.680;11.982;2022-08-21T04:44:12;100486.64;;;13.64;89.33
54872;BME280;43914;57.680;11.982;2022-08-21T04:46:38;100482.59;;;13.64;89.31
54872;BME280;43914;57.680;11.982;2022-08-21T04:49:03;100484.55;;;13.66;89.51
54872;BME280;43914;57.680;11.982;2022-08-21T04:51:33;100489.53;;;13.69;89.53
54872;BME280;43914;57.680;11.982;2022-08-21T04:54:10;100480.16;;;13.71;89.54
54872;BME280;43914;57.680;11.982;2022-08-21T04:56:40;100479.22;;;13.75;89.62
54872;BME280;43914;57.680;11.982;2022-08-21T04:59:22;100473.09;;;13.77;89.50
54872;BME280;43914;57.680;11.982;2022-08-21T05:01:51;100470.70;;;13.78;89.44
54872;BME280;43914;57.680;11.982;2022-08-21T05:04:22;100477.48;;;14.01;94.71
54872;BME280;43914;57.680;11.982;2022-08-21T05:06:52;100474.99;;;14.45;95.07
54872;BME280;43914;57.680;11.982;2022-08-21T05:09:20;100477.46;;;14.85;92.78
54872;BME280;43914;57.680;11.982;2022-08-21T05:11:47;100488.13;;;15.06;90.86
54872;BME280;43914;57.680;11.982;2022-08-21T05:14:14;100486.12;;;15.10;88.09
54872;BME280;43914;57.680;11.982;2022-08-21T05:16:41;100479.91;;;15.19;90.21
54872;BME280;43914;57.680;11.982;2022-08-21T05:19:09;100475.22;;;15.52;90.04
54872;BME280;43914;57.680;11.982;2022-08-21T05:21:38;100469.98;;;15.76;89.21
54872;BME280;43914;57.680;11.982;2022-08-21T05:24:05;100476.02;;;16.06;87.97
54872;BME280;43914;57.680;11.982;2022-08-21T05:26:32;100478.20;;;16.15;85.16
54872;BME280;43914;57.680;11.982;2022-08-21T05:28:58;100477.76;;;16.09;83.96
54872;BME280;43914;57.680;11.982;2022-08-21T05:31:24;100470.61;;;15.96;83.22
54872;BME280;43914;57.680;11.982;2022-08-21T05:33:50;100473.12;;;15.82;83.26
54872;BME280;43914;57.680;11.982;2022-08-21T05:36:17;100470.43;;;15.72;84.13
54872;BME280;43914;57.680;11.982;2022-08-21T05:38:44;100472.98;;;15.77;85.52
54872;BME280;43914;57.680;11.982;2022-08-21T05:41:10;100482.62;;;15.72;83.63
54872;BME280;43914;57.680;11.982;2022-08-21T05:43:36;100480.13;;;15.62;83.77
54872;BME280;43914;57.680;11.982;2022-08-21T05:46:03;100481.03;;;15.55;83.94
54872;BME280;43914;57.680;11.982;2022-08-21T05:48:33;100479.04;;;15.44;84.23
54872;BME280;43914;57.680;11.982;2022-08-21T05:51:04;100480.48;;;15.56;85.89
54872;BME280;43914;57.680;11.982;2022-08-21T05:53:32;100484.04;;;15.56;85.72
54872;BME280;43914;57.680;11.982;2022-08-21T05:55:58;100479.83;;;15.61;85.16
54872;BME280;43914;57.680;11.982;2022-08-21T05:58:24;100479.38;;;15.54;85.02
54872;BME280;43914;57.680;11.982;2022-08-21T06:00:51;100486.90;;;15.52;84.87
54872;BME280;43914;57.680;11.982;2022-08-21T06:03:22;100480.19;;;15.46;84.91
54872;BME280;43914;57.680;11.982;2022-08-21T06:05:49;100481.23;;;15.44;85.40
54872;BME280;43914;57.680;11.982;2022-08-21T06:08:16;100471.36;;;15.41;85.61
54872;BME280;43914;57.680;11.982;2022-08-21T06:10:44;100478.13;;;15.41;85.66
54872;BME280;43914;57.680;11.982;2022-08-21T06:13:13;100478.13;;;15.41;85.85
54872;BME280;43914;57.680;11.982;2022-08-21T06:15:39;100475.73;;;15.42;86.01
54872;BME280;43914;57.680;11.982;2022-08-21T06:18:05;100480.73;;;15.45;86.10
54872;BME280;43914;57.680;11.982;2022-08-21T06:20:31;100481.39;;;15.50;86.22
54872;BME280;43914;57.680;11.982;2022-08-21T06:22:58;100477.72;;;15.53;86.34
54872;BME280;43914;57.680;11.982;2022-08-21T06:25:24;100480.67;;;15.61;86.20
54872;BME280;43914;57.680;11.982;2022-08-21T06:27:51;100478.92;;;15.67;86.23
54872;BME280;43914;57.680;11.982;2022-08-21T06:30:17;100473.53;;;15.76;86.42
54872;BME280;43914;57.680;11.982;2022-08-21T06:32:44;100474.96;;;15.88;86.08
54872;BME280;43914;57.680;11.982;2022-08-21T06:35:10;100483.17;;;16.00;85.94
54872;BME280;43914;57.680;11.982;2022-08-21T06:37:36;100479.17;;;16.12;85.66
54872;BME280;43914;57.680;11.982;2022-08-21T06:40:04;100475.30;;;16.29;85.48
54872;BME280;43914;57.680;11.982;2022-08-21T06:42:31;100475.14;;;16.42;85.26
54872;BME280;43914;57.680;11.982;2022-08-21T06:44:58;100478.54;;;16.59;84.86
54872;BME280;43914;57.680;11.982;2022-08-21T06:47:24;100477.59;;;16.75;84.50
54872;BME280;43914;57.680;11.982;2022-08-21T06:49:50;100478.73;;;16.88;84.02
54872;BME280;43914;57.680;11.982;2022-08-21T06:52:16;100472.89;;;17.03;83.71
54872;BME280;43914;57.680;11.982;2022-08-21T06:54:42;100477.17;;;17.23;84.43
54872;BME280;43914;57.680;11.982;2022-08-21T06:57:08;100465.76;;;17.47;84.05
54872;BME280;43914;57.680;11.982;2022-08-21T06:59:34;100465.86;;;17.64;83.42
54872;BME280;43914;57.680;11.982;2022-08-21T07:02:00;100454.27;;;17.81;82.94
54872;BME280;43914;57.680;11.982;2022-08-21T07:04:26;100455.41;;;17.97;83.05
54872;BME280;43914;57.680;11.982;2022-08-21T07:06:52;100457.93;;;18.13;81.73
54872;BME280;43914;57.680;11.982;2022-08-21T07:09:18;100453.90;;;18.30;82.10
54872;BME280;43914;57.680;11.982;2022-08-21T07:11:46;100452.00;;;18.45;81.10
54872;BME280;43914;57.680;11.982;2022-08-21T07:14:15;100455.41;;;18.55;79.63
54872;BME280;43914;57.680;11.982;2022-08-21T07:16:40;100458.92;;;18.53;79.34
54872;BME280;43914;57.680;11.982;2022-08-21T07:19:06;100457.27;;;18.52;79.54
54872;BME280;43914;57.680;11.982;2022-08-21T07:21:32;100463.58;;;18.55;79.25
54872;BME280;43914;57.680;11.982;2022-08-21T07:23:58;100461.70;;;18.55;79.39
54872;BME280;43914;57.680;11.982;2022-08-21T07:26:24;100457.76;;;18.63;79.79
54872;BME280;43914;57.680;11.982;2022-08-21T07:28:52;100453.05;;;18.75;79.14
54872;BME280;43914;57.680;11.982;2022-08-21T07:31:20;100458.64;;;18.83;79.50
54872;BME280;43914;57.680;11.982;2022-08-21T07:33:47;100456.34;;;18.92;79.07
54872;BME280;43914;57.680;11.982;2022-08-21T07:36:13;100456.05;;;18.91;78.41
54872;BME280;43914;57.680;11.982;2022-08-21T07:38:40;100452.06;;;18.82;77.57
54872;BME280;43914;57.680;11.982;2022-08-21T07:41:18;100452.69;;;18.69;77.72
54872;BME280;43914;57.680;11.982;2022-08-21T07:43:41;100445.14;;;18.57;77.67
54872;BME280;43914;57.680;11.982;2022-08-21T07:46:07;100454.55;;;18.52;77.45
54872;BME280;43914;57.680;11.982;2022-08-21T07:48:33;100458.92;;;18.53;77.70
54872;BME280;43914;57.680;11.982;2022-08-21T07:51:02;100448.32;;;18.54;77.67
54872;BME280;43914;57.680;11.982;2022-08-21T07:53:30;100446.18;;;18.56;77.80
54872;BME280;43914;57.680;11.982;2022-08-21T07:55:59;100445.72;;;18.59;77.50
54872;BME280;43914;57.680;11.982;2022-08-21T07:58:25;100454.77;;;18.65;77.42
54872;BME280;43914;57.680;11.982;2022-08-21T08:00:51;100450.31;;;18.73;77.23
54872;BME280;43914;57.680;11.982;2022-08-21T08:03:17;100445.16;;;18.74;76.96
54872;BME280;43914;57.680;11.982;2022-08-21T08:05:43;100440.66;;;18.82;77.38
54872;BME280;43914;57.680;11.982;2022-08-21T08:08:08;100441.88;;;18.92;77.00
54872;BME280;43914;57.680;11.982;2022-08-21T08:10:35;100452.83;;;18.94;77.17
54872;BME280;43914;57.680;11.982;2022-08-21T08:13:03;100437.67;;;18.84;75.87
54872;BME280;43914;57.680;11.982;2022-08-21T08:15:29;100439.31;;;18.68;74.30
54872;BME280;43914;57.680;11.982;2022-08-21T08:17:55;100440.06;;;18.63;75.20
54872;BME280;43914;57.680;11.982;2022-08-21T08:20:23;100435.70;;;18.62;74.60
54872;BME280;43914;57.680;11.982;2022-08-21T08:22:53;100438.16;;;18.64;75.02
54872;BME280;43914;57.680;11.982;2022-08-21T08:25:20;100430.86;;;18.67;74.94
54872;BME280;43914;57.680;11.982;2022-08-21T08:27:48;100431.48;;;18.71;74.63
54872;BME280;43914;57.680;11.982;2022-08-21T08:30:16;100431.77;;;18.72;73.56
54872;BME280;43914;57.680;11.982;2022-08-21T08:32:43;100423.37;;;18.74;72.29
54872;BME280;43914;57.680;11.982;2022-08-21T08:35:10;100423.40;;;18.77;72.65
54872;BME280;43914;57.680;11.982;2022-08-21T08:37:38;100425.98;;;18.86;72.82
54872;BME280;43914;57.680;11.982;2022-08-21T08:40:18;100422.33;;;18.95;72.27
54872;BME280;43914;57.680;11.982;2022-08-21T08:42:41;100423.55;;;19.01;72.34
54872;BME280;43914;57.680;11.982;2022-08-21T08:45:11;100414.44;;;19.10;72.36
54872;BME280;43914;57.680;11.982;2022-08-21T08:47:42;100405.20;;;19.14;71.67
54872;BME280;43914;57.680;11.982;2022-08-21T08:53:14;100404.30;;;19.25;70.49
54872;BME280;43914;57.680;11.982;2022-08-21T08:55:40;100416.51;;;19.23;69.65
54872;BME280;43914;57.680;11.982;2022-08-21T08:58:16;100414.22;;;19.14;70.10
54872;BME280;43914;57.680;11.982;2022-08-21T09:00:53;100416.53;;;19.06;70.54
54872;BME280;43914;57.680;11.982;2022-08-21T09:03:21;100421.91;;;19.00;69.45
54872;BME280;43914;57.680;11.982;2022-08-21T09:05:55;100418.90;;;18.99;69.73
54872;BME280;43914;57.680;11.982;2022-08-21T09:11:15;100417.72;;;18.95;69.89
54872;BME280;43914;57.680;11.982;2022-08-21T09:19:51;100412.72;;;18.89;68.85
54872;BME280;43914;57.680;11.982;2022-08-21T09:22:26;100415.52;;;18.95;69.70
54872;BME280;43914;57.680;11.982;2022-08-21T09:25:22;100403.70;;;19.03;69.92
54872;BME280;43914;57.680;11.982;2022-08-21T09:27:51;100410.88;;;19.10;69.29
54872;BME280;43914;57.680;11.982;2022-08-21T09:30:19;100399.19;;;19.12;69.57
54872;BME280;43914;57.680;11.982;2022-08-21T09:32:47;100410.15;;;19.17;69.65
54872;BME280;43914;57.680;11.982;2022-08-21T09:35:16;100411.61;;;19.22;69.18
54872;BME280;43914;57.680;11.982;2022-08-21T09:37:54;100406.03;;;19.34;69.73
54872;BME280;43914;57.680;11.982;2022-08-21T09:40:44;100406.48;;;19.48;68.37
54872;BME280;43914;57.680;11.982;2022-08-21T09:43:21;100409.02;;;19.52;67.82
54872;BME280;43914;57.680;11.982;2022-08-21T09:48:46;100392.33;;;19.71;67.24
54872;BME280;43914;57.680;11.982;2022-08-21T09:51:15;100397.56;;;19.75;66.30
54872;BME280;43914;57.680;11.982;2022-08-21T09:53:51;100412.84;;;19.76;67.00
54872;BME280;43914;57.680;11.982;2022-08-21T09:59:27;100401.14;;;19.78;66.95
54872;BME280;43914;57.680;11.982;2022-08-21T10:01:59;100398.41;;;19.78;67.75
54872;BME280;43914;57.680;11.982;2022-08-21T10:04:35;100400.20;;;19.89;67.91
54872;BME280;43914;57.680;11.982;2022-08-21T10:07:13;100401.56;;;19.89;67.28
54872;BME280;43914;57.680;11.982;2022-08-21T10:09:39;100392.63;;;19.94;67.56
54872;BME280;43914;57.680;11.982;2022-08-21T10:12:25;100399.80;;;20.00;67.66
54872;BME280;43914;57.680;11.982;2022-08-21T10:26:07;100383.48;;;20.06;66.56
54872;BME280;43914;57.680;11.982;2022-08-21T10:28:25;100375.31;;;20.08;66.76
54872;BME280;43914;57.680;11.982;2022-08-21T10:31:03;100372.14;;;20.16;67.08
54872;BME280;43914;57.680;11.982;2022-08-21T10:36:39;100368.18;;;20.32;67.67
54872;BME280;43914;57.680;11.982;2022-08-21T10:39:21;100366.86;;;20.37;65.56
54872;BME280;43914;57.680;11.982;2022-08-21T10:47:54;100363.39;;;20.44;64.25
54872;BME280;43914;57.680;11.982;2022-08-21T10:50:30;100365.31;;;20.46;63.15
54872;BME280;43914;57.680;11.982;2022-08-21T10:55:50;100366.41;;;20.48;62.96
54872;BME280;43914;57.680;11.982;2022-08-21T10:58:31;100375.72;;;20.50;62.84
54872;BME280;43914;57.680;11.982;2022-08-21T11:01:07;100363.47;;;20.55;63.13
54872;BME280;43914;57.680;11.982;2022-08-21T11:03:43;100371.70;;;20.60;63.33
54872;BME280;43914;57.680;11.982;2022-08-21T11:06:14;100362.73;;;20.65;62.39
54872;BME280;43914;57.680;11.982;2022-08-21T11:08:47;100362.20;;;20.70;63.33
54872;BME280;43914;57.680;11.982;2022-08-21T11:11:19;100363.63;;;20.75;61.47
54872;BME280;43914;57.680;11.982;2022-08-21T11:14:00;100372.67;;;20.79;61.74
54872;BME280;43914;57.680;11.982;2022-08-21T11:19:06;100372.17;;;20.82;59.80
54872;BME280;43914;57.680;11.982;2022-08-21T11:21:46;100380.36;;;20.84;59.44
54872;BME280;43914;57.680;11.982;2022-08-21T11:24:24;100374.66;;;20.86;58.94
54872;BME280;43914;57.680;11.982;2022-08-21T11:27:01;100375.23;;;20.93;59.23
54872;BME280;43914;57.680;11.982;2022-08-21T11:29:35;100381.84;;;21.02;59.06
54872;BME280;43914;57.680;11.982;2022-08-21T11:35:25;100379.53;;;21.22;58.66
54872;BME280;43914;57.680;11.982;2022-08-21T11:46:11;100366.28;;;21.56;57.24
54872;BME280;43914;57.680;11.982;2022-08-21T11:54:52;100378.92;;;21.68;56.97
54872;BME280;43914;57.680;11.982;2022-08-21T11:57:22;100376.78;;;21.75;56.91
54872;BME280;43914;57.680;11.982;2022-08-21T12:00:05;100374.32;;;21.76;56.19
54872;BME280;43914;57.680;11.982;2022-08-21T12:02:36;100378.67;;;21.74;56.57
54872;BME280;43914;57.680;11.982;2022-08-21T12:05:11;100377.88;;;21.79;57.47
54872;BME280;43914;57.680;11.982;2022-08-21T12:07:41;100370.80;;;21.86;58.04
54872;BME280;43914;57.680;11.982;2022-08-21T12:10:12;100378.47;;;21.94;57.46
54872;BME280;43914;57.680;11.982;2022-08-21T12:12:44;100384.21;;;21.90;57.38
54872;BME280;43914;57.680;11.982;2022-08-21T12:17:57;100381.78;;;22.04;58.19
54872;BME280;43914;57.680;11.982;2022-08-21T12:20:41;100368.92;;;22.12;57.97
54872;BME280;43914;57.680;11.982;2022-08-21T12:25:47;100371.39;;;22.16;57.69
54872;BME280;43914;57.680;11.982;2022-08-21T12:28:33;100364.85;;;22.38;58.15
54872;BME280;43914;57.680;11.982;2022-08-21T12:30:59;100358.58;;;22.51;57.34
54872;BME280;43914;57.680;11.982;2022-08-21T12:33:31;100370.34;;;22.54;56.53
54872;BME280;43914;57.680;11.982;2022-08-21T12:36:14;100362.69;;;22.53;56.60
54872;BME280;43914;57.680;11.982;2022-08-21T12:39:03;100361.86;;;22.47;57.10
54872;BME280;43914;57.680;11.982;2022-08-21T12:41:34;100368.95;;;22.38;57.79
54872;BME280;43914;57.680;11.982;2022-08-21T12:44:17;100368.38;;;22.20;57.93
54872;BME280;43914;57.680;11.982;2022-08-21T12:47:05;100367.83;;;22.03;58.19
54872;BME280;43914;57.680;11.982;2022-08-21T12:49:37;100376.53;;;21.89;58.44
54872;BME280;43914;57.680;11.982;2022-08-21T12:52:20;100374.87;;;21.78;59.12
54872;BME280;43914;57.680;11.982;2022-08-21T12:54:48;100373.45;;;21.65;59.46
54872;BME280;43914;57.680;11.982;2022-08-21T12:57:23;100372.56;;;21.54;60.14
54872;BME280;43914;57.680;11.982;2022-08-21T12:59:57;100379.62;;;21.40;60.87
54872;BME280;43914;57.680;11.982;2022-08-21T13:02:35;100372.44;;;21.26;61.56
54872;BME280;43914;57.680;11.982;2022-08-21T13:05:04;100378.39;;;21.15;62.02
54872;BME280;43914;57.680;11.982;2022-08-21T13:07:33;100379.11;;;21.02;62.83
54872;BME280;43914;57.680;11.982;2022-08-21T13:10:25;100377.41;;;20.91;63.22
54872;BME280;43914;57.680;11.982;2022-08-21T13:12:42;100369.72;;;20.83;63.42
54872;BME280;43914;57.680;11.982;2022-08-21T13:15:08;100361.47;;;20.78;63.67
54872;BME280;43914;57.680;11.982;2022-08-21T13:17:38;100358.48;;;20.79;63.81
54872;BME280;43914;57.680;11.982;2022-08-21T13:20:23;100358.52;;;20.84;63.58
54872;BME280;43914;57.680;11.982;2022-08-21T13:22:51;100354.70;;;20.85;63.65
54872;BME280;43914;57.680;11.982;2022-08-21T13:25:20;100351.34;;;20.78;63.54
54872;BME280;43914;57.680;11.982;2022-08-21T13:28:15;100354.02;;;20.70;63.45
54872;BME280;43914;57.680;11.982;2022-08-21T13:30:42;100350.41;;;20.59;63.25
54872;BME280;43914;57.680;11.982;2022-08-21T13:33:18;100358.01;;;20.57;63.84
54872;BME280;43914;57.680;11.982;2022-08-21T13:38:29;100344.70;;;20.66;63.69
54872;BME280;43914;57.680;11.982;2022-08-21T13:41:01;100339.52;;;20.67;64.04
54872;BME280;43914;57.680;11.982;2022-08-21T13:43:35;100334.56;;;20.59;64.41
54872;BME280;43914;57.680;11.982;2022-08-21T13:46:07;100342.16;;;20.54;64.66
54872;BME280;43914;57.680;11.982;2022-08-21T13:48:36;100332.31;;;20.51;65.86
54872;BME280;43914;57.680;11.982;2022-08-21T13:51:03;100329.63;;;20.56;66.22
54872;BME280;43914;57.680;11.982;2022-08-21T13:53:43;100327.48;;;20.60;66.36
54872;BME280;43914;57.680;11.982;2022-08-21T13:56:04;100325.87;;;20.67;66.23
54872;BME280;43914;57.680;11.982;2022-08-21T13:58:42;100308.43;;;20.71;66.02
54872;BME280;43914;57.680;11.982;2022-08-21T14:01:18;100304.61;;;20.74;66.46